createdAt,value
2019-04-29T00:02:18.464Z,67.39
2019-04-29T00:04:46.874Z,66.79
2019-04-29T00:07:15.310Z,67.49
2019-04-29T00:09:43.706Z,67.52
2019-04-29T00:12:12.353Z,67.30
2019-04-29T00:14:42.662Z,67.13
2019-04-29T00:17:15.548Z,67.07
2019-04-29T00:20:02.057Z,67.03
2019-04-29T00:22:31.720Z,67.59
2019-04-29T00:25:00.210Z,67.58
2019-04-29T00:27:28.605Z,67.87
2019-04-29T00:29:57.033Z,67.74
2019-04-29T00:32:25.435Z,67.87
2019-04-29T00:34:53.853Z,67.93
2019-04-29T00:37:23.890Z,67.70
2019-04-29T00:39:56.873Z,67.88
2019-04-29T00:42:39.141Z,67.65
2019-04-29T00:45:08.492Z,68.02
2019-04-29T00:47:36.966Z,67.78
2019-04-29T00:50:10.134Z,67.67
2019-04-29T00:52:38.536Z,67.86
2019-04-29T00:55:08.960Z,67.42
2019-04-29T00:57:37.361Z,67.59
2019-04-29T01:00:07.479Z,67.79
2019-04-29T01:02:35.995Z,68.11
2019-04-29T01:05:06.129Z,67.23
2019-04-29T01:07:34.553Z,67.53
2019-04-29T01:10:03.065Z,67.85
2019-04-29T01:12:31.714Z,67.69
2019-04-29T01:15:00.179Z,67.70
2019-04-29T01:17:28.605Z,68.36
2019-04-29T01:19:57.031Z,67.69
2019-04-29T01:22:25.451Z,68.01
2019-04-29T01:24:53.859Z,67.65
2019-04-29T01:27:23.903Z,67.55
2019-04-29T01:29:52.317Z,66.68
2019-04-29T01:32:20.962Z,66.68
2019-04-29T01:34:54.087Z,67.86
2019-04-29T01:37:24.294Z,68.73
2019-04-29T01:39:54.348Z,69.11
2019-04-29T01:42:24.419Z,69.33
2019-04-29T01:44:52.845Z,68.63
2019-04-29T01:47:21.265Z,67.90
2019-04-29T01:49:49.693Z,68.50
2019-04-29T01:52:18.088Z,68.60
2019-04-29T01:54:46.522Z,68.61
2019-04-29T01:57:14.909Z,68.73
2019-04-29T01:59:43.313Z,68.75
2019-04-29T02:02:11.803Z,68.94
2019-04-29T02:04:40.314Z,69.02
2019-04-29T02:07:08.712Z,68.74
2019-04-29T02:09:44.483Z,68.72
2019-04-29T02:12:12.943Z,68.64
2019-04-29T02:14:41.364Z,68.93
2019-04-29T02:17:09.751Z,69.48
2019-04-29T02:19:38.185Z,69.00
2019-04-29T02:22:16.985Z,69.07
2019-04-29T02:25:01.962Z,69.13
2019-04-29T02:27:30.368Z,69.03
2019-04-29T02:29:58.798Z,69.37
2019-04-29T02:32:28.860Z,69.05
2019-04-29T02:34:57.290Z,69.21
2019-04-29T02:37:30.163Z,68.84
2019-04-29T02:40:00.298Z,69.25
2019-04-29T02:42:45.310Z,68.91
2019-04-29T02:45:16.178Z,69.11
2019-04-29T02:47:44.569Z,68.97
2019-04-29T02:50:13.245Z,68.94
2019-04-29T02:52:41.649Z,68.68
2019-04-29T02:55:12.136Z,69.02
2019-04-29T02:57:58.522Z,68.93
2019-04-29T03:00:44.515Z,69.00
2019-04-29T03:03:17.432Z,69.07
2019-04-29T03:05:47.479Z,68.79
2019-04-29T03:08:15.973Z,68.75
2019-04-29T03:10:44.360Z,68.38
2019-04-29T03:13:12.866Z,68.45
2019-04-29T03:15:43.104Z,68.55
2019-04-29T03:18:11.660Z,68.65
2019-04-29T03:20:50.396Z,68.85
2019-04-29T03:23:20.499Z,69.03
2019-04-29T03:25:49.019Z,68.71
2019-04-29T03:28:17.406Z,69.03
2019-04-29T03:30:45.833Z,68.92
2019-04-29T03:33:14.256Z,68.90
2019-04-29T03:35:42.670Z,69.28
2019-04-29T03:38:11.058Z,69.34
2019-04-29T03:40:39.558Z,69.00
2019-04-29T03:43:07.964Z,68.77
2019-04-29T03:45:36.605Z,68.63
2019-04-29T03:48:05.110Z,68.32
2019-04-29T03:50:33.556Z,68.43
2019-04-29T03:53:01.977Z,68.45
2019-04-29T03:55:39.657Z,68.68
2019-04-29T03:58:00.564Z,68.87
2019-04-29T04:00:29.059Z,68.53
2019-04-29T04:02:59.108Z,68.27
2019-04-29T04:05:40.772Z,68.45
2019-04-29T04:08:19.640Z,68.23
2019-04-29T04:10:50.787Z,68.34
2019-04-29T04:13:19.185Z,68.17
2019-04-29T04:15:47.598Z,68.12
2019-04-29T04:18:20.417Z,68.10
2019-04-29T04:20:48.841Z,68.14
2019-04-29T04:23:17.237Z,68.20
2019-04-29T04:25:45.653Z,68.25
2019-04-29T04:28:14.052Z,68.38
2019-04-29T04:30:42.495Z,68.50
2019-04-29T04:33:11.030Z,68.36
2019-04-29T04:35:39.421Z,68.56
2019-04-29T04:38:07.857Z,68.78
2019-04-29T04:40:40.472Z,68.58
2019-04-29T04:43:08.898Z,68.90
2019-04-29T04:45:37.352Z,68.49
2019-04-29T04:48:05.784Z,68.88
2019-04-29T04:50:34.221Z,68.56
2019-04-29T04:53:02.618Z,68.34
2019-04-29T04:55:32.686Z,68.18
2019-04-29T04:58:01.156Z,68.29
2019-04-29T05:00:31.305Z,68.61
2019-04-29T05:02:59.703Z,68.22
2019-04-29T05:05:28.098Z,67.83
2019-04-29T05:07:56.530Z,68.02
2019-04-29T05:10:24.974Z,67.89
2019-04-29T05:12:53.385Z,67.73
2019-04-29T05:15:21.842Z,67.37
2019-04-29T05:17:53.065Z,66.70
2019-04-29T05:20:20.406Z,67.47
2019-04-29T05:23:00.695Z,68.73
2019-04-29T05:25:31.463Z,67.86
2019-04-29T05:28:00.600Z,67.43
2019-04-29T05:30:29.106Z,67.67
2019-04-29T05:32:57.550Z,68.14
2019-04-29T05:35:33.141Z,67.34
2019-04-29T05:38:15.379Z,67.30
2019-04-29T05:40:45.412Z,67.57
2019-04-29T05:43:18.481Z,67.29
2019-04-29T05:45:50.958Z,67.47
2019-04-29T05:48:21.140Z,67.56
2019-04-29T05:50:52.071Z,67.76
2019-04-29T05:53:25.874Z,66.97
2019-04-29T05:55:54.331Z,67.22
2019-04-29T05:58:22.750Z,67.43
2019-04-29T06:00:52.804Z,67.52
2019-04-29T06:03:21.220Z,66.80
2019-04-29T06:05:49.723Z,67.22
2019-04-29T06:08:20.830Z,66.79
2019-04-29T06:10:50.374Z,67.28
2019-04-29T06:13:18.784Z,67.22
2019-04-29T06:15:47.188Z,67.76
2019-04-29T06:18:17.648Z,66.68
2019-04-29T06:20:45.768Z,66.42
2019-04-29T06:23:14.167Z,67.02
2019-04-29T06:25:42.572Z,66.96
2019-04-29T06:28:11.016Z,65.81
2019-04-29T06:30:40.715Z,65.63
2019-04-29T06:33:09.270Z,66.26
2019-04-29T06:35:37.767Z,66.78
2019-04-29T06:38:06.179Z,67.16
2019-04-29T06:40:35.409Z,66.69
2019-04-29T06:43:04.986Z,65.99
2019-04-29T06:45:33.423Z,65.79
2019-04-29T06:48:01.826Z,65.76
2019-04-29T06:50:30.228Z,65.67
2019-04-29T06:52:58.651Z,66.17
2019-04-29T06:55:27.062Z,66.13
2019-04-29T06:57:55.485Z,65.72
2019-04-29T07:00:24.082Z,66.14
2019-04-29T07:02:52.509Z,65.91
2019-04-29T07:05:20.935Z,64.91
2019-04-29T07:07:49.366Z,64.93
2019-04-29T07:10:21.271Z,64.06
2019-04-29T07:12:48.507Z,64.06
2019-04-29T07:15:17.138Z,64.41
2019-04-29T07:17:45.590Z,64.40
2019-04-29T07:20:14.119Z,64.35
2019-04-29T07:22:42.629Z,65.03
2019-04-29T07:25:11.172Z,63.69
2019-04-29T07:27:43.503Z,64.36
2019-04-29T07:30:10.229Z,64.25
2019-04-29T07:32:42.259Z,64.04
2019-04-29T07:35:09.864Z,63.60
2019-04-29T07:37:39.052Z,63.66
2019-04-29T07:40:09.363Z,64.31
2019-04-29T07:42:37.917Z,62.89
2019-04-29T07:45:17.270Z,62.73
2019-04-29T07:47:56.360Z,62.30
2019-04-29T07:50:17.582Z,62.83
2019-04-29T07:52:49.956Z,61.81
2019-04-29T07:55:16.332Z,62.19
2019-04-29T07:57:47.790Z,62.29
2019-04-29T08:00:15.815Z,61.39
2019-04-29T08:02:44.816Z,61.23
2019-04-29T08:05:13.390Z,61.95
2019-04-29T08:07:42.343Z,61.58
2019-04-29T08:10:23.220Z,61.92
2019-04-29T08:12:42.803Z,61.84
2019-04-29T08:15:13.100Z,61.76
2019-04-29T08:17:41.500Z,61.31
2019-04-29T08:20:10.356Z,60.98
2019-04-29T08:22:38.804Z,60.08
2019-04-29T08:25:08.654Z,60.27
2019-04-29T08:27:40.694Z,60.31
2019-04-29T08:30:11.238Z,60.66
2019-04-29T08:32:38.189Z,60.67
2019-04-29T08:35:07.614Z,60.63
2019-04-29T08:37:36.047Z,59.96
2019-04-29T08:40:15.887Z,61.15
2019-04-29T08:42:46.832Z,60.11
2019-04-29T08:45:16.442Z,59.46
2019-04-29T08:47:49.522Z,59.98
2019-04-29T08:50:17.934Z,60.61
2019-04-29T08:52:46.348Z,60.59
2019-04-29T08:55:15.010Z,61.41
2019-04-29T08:57:43.487Z,60.77
2019-04-29T09:00:12.808Z,59.01
2019-04-29T09:02:46.773Z,59.30
2019-04-29T09:05:13.306Z,59.31
2019-04-29T09:07:41.752Z,59.54
2019-04-29T09:10:11.013Z,59.67
2019-04-29T09:12:39.463Z,59.21
2019-04-29T09:15:09.435Z,58.58
2019-04-29T09:17:37.913Z,59.95
2019-04-29T09:20:07.499Z,58.98
2019-04-29T09:22:37.615Z,58.84
2019-04-29T09:25:11.635Z,59.50
2019-04-29T09:27:45.049Z,57.58
2019-04-29T09:30:13.827Z,57.82
2019-04-29T09:32:42.272Z,57.57
2019-04-29T09:35:10.811Z,58.81
2019-04-29T09:37:39.244Z,60.22
2019-04-29T09:40:11.300Z,58.98
2019-04-29T09:42:45.564Z,58.73
2019-04-29T09:45:14.695Z,58.55
2019-04-29T09:47:43.520Z,58.52
2019-04-29T09:50:12.203Z,58.63
2019-04-29T09:52:40.721Z,58.47
2019-04-29T09:55:09.471Z,58.93
2019-04-29T09:57:37.925Z,59.00
2019-04-29T10:00:10.220Z,59.03
2019-04-29T10:02:43.047Z,58.40
2019-04-29T10:05:19.019Z,58.80
2019-04-29T10:07:47.463Z,58.69
2019-04-29T10:10:16.004Z,57.62
2019-04-29T10:12:44.521Z,56.57
2019-04-29T10:15:14.671Z,57.32
2019-04-29T10:17:50.841Z,56.88
2019-04-29T10:20:19.456Z,55.05
2019-04-29T10:22:50.220Z,54.40
2019-04-29T10:25:18.318Z,54.55
2019-04-29T10:27:46.745Z,54.34
2019-04-29T10:30:17.065Z,54.24
2019-04-29T10:32:45.568Z,55.04
2019-04-29T10:35:14.395Z,52.75
2019-04-29T10:37:42.884Z,53.94
2019-04-29T10:40:30.237Z,54.83
2019-04-29T10:43:15.562Z,52.41
2019-04-29T10:45:50.411Z,51.04
2019-04-29T10:48:24.363Z,52.61
2019-04-29T10:50:54.005Z,51.47
2019-04-29T10:53:24.519Z,50.82
2019-04-29T10:55:53.267Z,51.34
2019-04-29T10:58:26.638Z,50.73
2019-04-29T11:01:12.983Z,51.24
2019-04-29T11:03:43.410Z,50.47
2019-04-29T11:06:11.908Z,48.89
2019-04-29T11:08:43.238Z,50.23
2019-04-29T11:11:23.017Z,50.27
2019-04-29T11:13:48.182Z,52.03
2019-04-29T11:16:13.477Z,51.52
2019-04-29T11:18:41.980Z,51.76
2019-04-29T11:21:10.533Z,50.50
2019-04-29T11:23:50.623Z,48.58
2019-04-29T11:26:24.689Z,49.04
2019-04-29T11:28:54.820Z,50.12
2019-04-29T11:31:23.364Z,49.20
2019-04-29T11:34:05.253Z,48.83
2019-04-29T11:36:34.978Z,49.95
2019-04-29T11:39:02.514Z,50.20
2019-04-29T11:41:31.647Z,49.75
2019-04-29T11:44:00.099Z,48.66
2019-04-29T11:46:28.586Z,49.23
2019-04-29T11:48:58.719Z,48.57
2019-04-29T11:51:43.844Z,49.62
2019-04-29T11:54:08.299Z,48.46
2019-04-29T11:56:34.913Z,49.72
2019-04-29T11:59:09.032Z,48.29
2019-04-29T12:01:55.322Z,49.81
2019-04-29T12:04:37.331Z,49.72
2019-04-29T12:07:08.525Z,49.83
2019-04-29T12:09:36.985Z,49.57
2019-04-29T12:12:07.889Z,48.58
2019-04-29T12:14:43.763Z,46.19
2019-04-29T12:17:26.076Z,46.15
2019-04-29T12:19:58.833Z,46.66
2019-04-29T12:22:30.907Z,46.15
2019-04-29T12:24:57.604Z,47.09
2019-04-29T12:27:29.073Z,46.50
2019-04-29T12:29:59.465Z,47.11
2019-04-29T12:32:27.949Z,48.30
2019-04-29T12:35:03.998Z,47.23
2019-04-29T12:37:34.481Z,47.06
2019-04-29T12:40:21.484Z,46.85
2019-04-29T12:42:55.243Z,48.09
2019-04-29T12:45:28.233Z,48.13
2019-04-29T12:47:56.774Z,46.08
2019-04-29T12:50:25.449Z,46.05
2019-04-29T12:52:53.933Z,46.56
2019-04-29T12:55:44.140Z,45.26
2019-04-29T12:58:00.311Z,45.75
2019-04-29T13:00:47.374Z,45.16
2019-04-29T13:03:30.854Z,44.54
2019-04-29T13:06:02.598Z,45.79
2019-04-29T13:08:38.811Z,45.66
2019-04-29T13:11:09.207Z,45.27
2019-04-29T13:13:37.684Z,44.09
2019-04-29T13:16:25.902Z,43.83
2019-04-29T13:19:11.614Z,42.39
2019-04-29T13:21:31.961Z,43.26
2019-04-29T13:24:13.877Z,43.81
2019-04-29T13:26:33.424Z,43.25
2019-04-29T13:29:01.690Z,43.48
2019-04-29T13:31:38.068Z,42.97
2019-04-29T13:34:14.698Z,44.16
2019-04-29T13:36:32.669Z,44.33
2019-04-29T13:39:01.782Z,44.21
2019-04-29T13:41:30.462Z,43.20
2019-04-29T13:44:05.347Z,44.86
2019-04-29T13:46:32.373Z,45.14
2019-04-29T13:49:12.851Z,44.40
2019-04-29T13:51:36.975Z,45.04
2019-04-29T13:54:06.654Z,44.76
2019-04-29T13:56:54.192Z,43.92
2019-04-29T13:59:10.678Z,44.69
2019-04-29T14:01:57.846Z,43.83
2019-04-29T14:04:13.886Z,43.65
2019-04-29T14:06:56.110Z,44.92
2019-04-29T14:09:14.610Z,44.46
2019-04-29T14:11:43.375Z,45.30
2019-04-29T14:14:11.787Z,45.22
2019-04-29T14:16:43.167Z,45.07
2019-04-29T14:19:10.387Z,44.92
2019-04-29T14:21:38.813Z,44.44
2019-04-29T14:24:07.228Z,44.50
2019-04-29T14:26:36.950Z,44.70
2019-04-29T14:29:05.871Z,44.77
2019-04-29T14:31:34.302Z,45.03
2019-04-29T14:34:10.135Z,45.08
2019-04-29T14:36:38.547Z,44.84
2019-04-29T14:39:13.077Z,46.32
2019-04-29T14:41:41.544Z,47.56
2019-04-29T14:44:17.934Z,47.72
2019-04-29T14:47:02.985Z,49.10
2019-04-29T14:49:39.837Z,50.49
2019-04-29T14:52:08.152Z,50.32
2019-04-29T14:54:36.951Z,51.07
2019-04-29T14:57:09.134Z,50.28
2019-04-29T14:59:36.965Z,49.04
2019-04-29T15:02:07.360Z,49.97
2019-04-29T15:04:37.516Z,50.85
2019-04-29T15:07:06.090Z,52.05
2019-04-29T15:09:45.865Z,52.06
2019-04-29T15:12:09.676Z,53.45
2019-04-29T15:14:47.602Z,53.94
2019-04-29T15:17:27.172Z,54.67
2019-04-29T15:19:57.687Z,56.06
2019-04-29T15:22:27.869Z,57.71
2019-04-29T15:24:56.330Z,58.25
2019-04-29T15:27:24.727Z,58.02
2019-04-29T15:29:53.165Z,57.54
2019-04-29T15:32:22.395Z,58.36
2019-04-29T15:34:51.739Z,58.24
2019-04-29T15:37:20.145Z,58.79
2019-04-29T15:39:48.566Z,57.65
2019-04-29T15:42:17.011Z,58.91
2019-04-29T15:44:45.422Z,59.17
2019-04-29T15:47:13.938Z,58.64
2019-04-29T15:49:42.344Z,59.25
2019-04-29T15:52:10.771Z,60.00
2019-04-29T15:54:39.191Z,59.00
2019-04-29T15:57:09.269Z,59.51
2019-04-29T15:59:48.510Z,61.35
2019-04-29T16:02:08.423Z,60.74
2019-04-29T16:04:47.227Z,59.79
2019-04-29T16:07:25.659Z,61.62
2019-04-29T16:09:58.545Z,63.19
2019-04-29T16:12:34.268Z,65.03
2019-04-29T16:15:02.698Z,65.15
2019-04-29T16:17:31.765Z,66.14
2019-04-29T16:20:01.451Z,65.02
2019-04-29T16:22:29.855Z,65.77
2019-04-29T16:27:28.425Z,65.14
2019-04-29T16:29:56.865Z,66.18
2019-04-29T16:32:30.021Z,66.74
2019-04-29T16:34:58.448Z,67.20
2019-04-29T16:37:31.719Z,67.41
2019-04-29T16:39:59.855Z,66.51
2019-04-29T16:42:28.951Z,66.70
2019-04-29T16:44:57.466Z,67.88
2019-04-29T16:47:26.075Z,67.11
2019-04-29T16:49:57.740Z,67.91
2019-04-29T16:52:24.686Z,68.34
2019-04-29T16:54:53.194Z,68.15
2019-04-29T16:57:21.649Z,68.04
2019-04-29T16:59:50.085Z,68.72
2019-04-29T17:02:19.753Z,69.20
2019-04-29T17:04:48.640Z,67.60
2019-04-29T17:07:17.875Z,68.16
2019-04-29T17:09:54.189Z,67.58
2019-04-29T17:12:29.332Z,68.68
2019-04-29T17:15:03.953Z,68.87
2019-04-29T17:17:29.210Z,69.01
2019-04-29T17:20:01.898Z,69.21
2019-04-29T17:22:35.595Z,69.16
2019-04-29T17:25:10.054Z,69.28
2019-04-29T17:27:47.153Z,70.27
2019-04-29T17:33:29.820Z,69.29
2019-04-29T17:35:14.119Z,65.17
2019-04-29T17:35:14.780Z,70.69
2019-04-29T17:36:02.029Z,69.08
2019-04-29T17:38:35.154Z,69.38
2019-04-29T17:41:09.567Z,68.06
2019-04-29T17:43:45.554Z,68.14
2019-04-29T17:46:31.419Z,69.47
2019-04-29T17:52:29.356Z,69.29
2019-04-29T17:55:02.602Z,68.46
2019-04-29T17:57:36.406Z,68.99
2019-04-29T18:00:20.232Z,68.98
2019-04-29T18:02:57.376Z,68.56
2019-04-29T18:05:34.384Z,68.89
2019-04-29T18:08:10.779Z,68.42
2019-04-29T18:10:45.675Z,68.59
2019-04-29T18:13:18.787Z,69.22
2019-04-29T18:16:00.035Z,69.72
2019-04-29T18:18:17.323Z,68.88
2019-04-29T18:21:06.418Z,69.50
2019-04-29T18:23:35.812Z,68.45
2019-04-29T18:26:05.954Z,67.82
2019-04-29T18:28:35.813Z,67.41
2019-04-29T18:31:06.650Z,66.93
2019-04-29T18:33:35.237Z,67.67
2019-04-29T18:36:07.169Z,68.00
2019-04-29T18:38:35.633Z,68.85
2019-04-29T18:41:04.077Z,69.69
2019-04-29T18:43:32.537Z,69.49
2019-04-29T18:46:00.945Z,68.92
2019-04-29T18:48:29.472Z,69.16
2019-04-29T18:50:57.882Z,69.56
2019-04-29T18:53:26.399Z,69.70
2019-04-29T18:55:55.192Z,69.83
2019-04-29T18:58:24.926Z,71.09
2019-04-29T19:00:55.749Z,70.78
2019-04-29T19:03:29.734Z,70.35
2019-04-29T19:05:58.730Z,69.87
2019-04-29T19:08:30.477Z,70.01
2019-04-29T19:10:57.334Z,70.59
2019-04-29T19:13:26.097Z,70.04
2019-04-29T19:16:08.416Z,69.18
2019-04-29T19:18:25.491Z,69.93
2019-04-29T19:20:54.816Z,69.95
2019-04-29T19:23:29.225Z,68.58
2019-04-29T19:25:54.324Z,68.43
2019-04-29T19:28:29.955Z,69.42
2019-04-29T19:30:56.153Z,68.58
2019-04-29T19:33:25.238Z,68.08
2019-04-29T19:35:55.431Z,67.36
2019-04-29T19:38:25.321Z,68.45
2019-04-29T19:40:53.924Z,68.71
2019-04-29T19:43:22.358Z,68.63
2019-04-29T19:45:50.797Z,69.05
2019-04-29T19:48:22.375Z,69.29
2019-04-29T19:50:59.639Z,70.53
2019-04-29T19:53:19.682Z,71.05
2019-04-29T19:55:48.155Z,71.07
2019-04-29T19:58:17.331Z,71.44
2019-04-29T20:00:47.772Z,70.46
2019-04-29T20:03:23.652Z,71.28
2019-04-29T20:05:49.486Z,70.65
2019-04-29T20:08:37.695Z,70.51
2019-04-29T20:10:51.587Z,71.42
2019-04-29T20:13:19.118Z,71.01
2019-04-29T20:15:50.095Z,71.29
2019-04-29T20:18:31.173Z,71.28
2019-04-29T20:21:07.773Z,70.46
2019-04-29T20:23:27.443Z,68.42
2019-04-29T20:26:05.526Z,68.01
2019-04-29T20:28:26.096Z,67.37
2019-04-29T20:31:08.033Z,66.41
2019-04-29T20:33:24.970Z,66.78
2019-04-29T20:35:55.475Z,66.70
2019-04-29T20:38:29.976Z,67.08
2019-04-29T20:40:57.228Z,67.96
2019-04-29T20:43:29.380Z,69.54
2019-04-29T20:45:58.127Z,69.96
2019-04-29T20:48:26.303Z,69.26
2019-04-29T20:50:56.622Z,70.16
2019-04-29T20:53:26.692Z,69.51
2019-04-29T20:56:09.173Z,70.18
2019-04-29T20:58:31.430Z,68.05
2019-04-29T21:01:02.992Z,67.20
2019-04-29T21:03:32.011Z,66.37
2019-04-29T21:06:02.717Z,66.89
2019-04-29T21:08:28.164Z,67.97
2019-04-29T21:11:00.086Z,68.74
2019-04-29T21:13:35.843Z,68.05
2019-04-29T21:16:08.858Z,67.32
2019-04-29T21:18:38.805Z,66.90
2019-04-29T21:21:07.956Z,66.35
2019-04-29T21:23:36.728Z,67.05
2019-04-29T21:26:08.592Z,67.12
2019-04-29T21:28:38.227Z,68.01
2019-04-29T21:31:05.616Z,67.59
2019-04-29T21:33:35.505Z,66.55
2019-04-29T21:36:26.496Z,67.44
2019-04-29T21:39:01.931Z,67.21
2019-04-29T21:41:45.783Z,68.40
2019-04-29T21:44:14.388Z,67.40
2019-04-29T21:46:42.804Z,68.38
2019-04-29T21:49:11.789Z,68.66
2019-04-29T21:51:41.852Z,67.87
2019-04-29T21:54:14.189Z,67.89
2019-04-29T21:56:46.238Z,67.44
2019-04-29T21:59:12.412Z,68.24
2019-04-29T22:01:40.935Z,67.87
2019-04-29T22:04:09.380Z,68.40
2019-04-29T22:06:37.870Z,68.20
2019-04-29T22:09:08.649Z,67.84
2019-04-29T22:11:43.044Z,68.26
2019-04-29T22:14:09.807Z,67.91
2019-04-29T22:16:37.469Z,67.88
2019-04-29T22:19:05.987Z,67.96
2019-04-29T22:21:35.998Z,67.96
2019-04-29T22:24:06.342Z,68.26
2019-04-29T22:26:35.176Z,69.28
2019-04-29T22:29:03.754Z,69.32
2019-04-29T22:31:33.766Z,68.47
2019-04-29T22:34:02.320Z,68.15
2019-04-29T22:36:30.780Z,68.29
2019-04-29T22:38:59.208Z,67.93
2019-04-29T22:41:48.705Z,68.14
2019-04-29T22:44:21.928Z,68.37
2019-04-29T22:46:48.121Z,67.97
2019-04-29T22:49:19.766Z,68.24
2019-04-29T22:51:53.591Z,68.35
2019-04-29T22:54:22.162Z,68.34
2019-04-29T22:56:53.694Z,68.96
2019-04-29T22:59:20.311Z,68.64
2019-04-29T23:01:50.456Z,68.82
2019-04-29T23:04:18.931Z,68.79
2019-04-29T23:06:48.138Z,69.44
2019-04-29T23:09:16.773Z,69.27
2019-04-29T23:11:47.367Z,69.77
2019-04-29T23:14:15.776Z,70.38
2019-04-29T23:16:45.435Z,70.32
2019-04-29T23:19:17.897Z,70.19
2019-04-29T23:22:05.776Z,70.06
2019-04-29T23:24:52.641Z,71.55
2019-04-29T23:27:21.195Z,71.74
2019-04-29T23:29:49.623Z,72.18
2019-04-29T23:32:18.154Z,72.61
2019-04-29T23:34:46.564Z,72.59
2019-04-29T23:37:15.014Z,72.61
2019-04-29T23:39:45.660Z,72.05
2019-04-29T23:42:16.306Z,72.14
2019-04-29T23:44:45.842Z,71.32
2019-04-29T23:47:15.887Z,71.76
2019-04-29T23:49:46.687Z,72.05
2019-04-29T23:52:17.645Z,71.93
2019-04-29T23:54:48.415Z,72.62
2019-04-29T23:57:23.665Z,72.71
